Time,TemperatureF,DewpointF,PressureIn,WindDirection,WindDirectionDegrees,WindSpeedMPH,WindSpeedGustMPH,Humidity,HourlyPrecipIn,Conditions,Clouds,dailyrainin,SoftwareType,DateUTC
2013-02-06 00:10:00,43.5,43.0,30.06,SSW,202,0.0,-999.0,98,-99.99,,,0.00,Acu-Link.com,2013-02-06 08:10:00,
2013-02-06 00:25:00,42.8,42.3,30.06,SSW,202,0.0,-999.0,98,-99.99,,,0.00,Acu-Link.com,2013-02-06 08:25:00,
2013-02-06 00:40:00,42.1,41.6,30.07,West,270,0.0,-999.0,98,-99.99,,,0.00,Acu-Link.com,2013-02-06 08:40:00,
2013-02-06 00:55:00,41.7,41.2,30.07,SSW,202,0.0,-999.0,98,-99.99,,,0.00,Acu-Link.com,2013-02-06 08:55:00,
2013-02-06 01:11:00,41.5,41.0,30.06,SSW,202,0.0,-999.0,98,-99.99,,,0.00,Acu-Link.com,2013-02-06 09:11:00,
2013-02-06 01:26:00,41.0,40.5,30.06,NE,45,0.0,-999.0,98,-99.99,,,0.00,Acu-Link.com,2013-02-06 09:26:00,
2013-02-06 01:41:00,40.3,39.8,30.06,NNE,22,0.0,-999.0,98,-99.99,,,0.00,Acu-Link.com,2013-02-06 09:41:00,
2013-02-06 01:56:00,40.1,39.6,30.07,NE,45,0.0,-999.0,98,-99.99,,,0.00,Acu-Link.com,2013-02-06 09:56:00,
2013-02-06 02:11:00,39.4,38.9,30.06,NE,45,0.0,-999.0,98,-99.99,,,0.00,Acu-Link.com,2013-02-06 10:11:00,
2013-02-06 02:26:00,39.2,38.7,30.06,SSW,202,0.0,-999.0,98,-99.99,,,0.00,Acu-Link.com,2013-02-06 10:26:00,
2013-02-06 02:41:00,38.8,38.3,30.07,SSE,157,0.0,-999.0,98,-99.99,,,0.00,Acu-Link.com,2013-02-06 10:41:00,
2013-02-06 02:56:00,38.1,37.6,30.06,West,270,0.0,-999.0,98,-99.99,,,0.00,Acu-Link.com,2013-02-06 10:56:00,
2013-02-06 03:11:00,37.8,37.3,30.07,WNW,292,0.0,-999.0,98,-99.99,,,0.00,Acu-Link.com,2013-02-06 11:11:00,
2013-02-06 03:27:00,37.9,37.4,30.05,South,180,0.0,-999.0,98,-99.99,,,0.00,Acu-Link.com,2013-02-06 11:27:00,
2013-02-06 03:42:00,37.2,36.7,30.06,NW,315,0.0,-999.0,98,-99.99,,,0.00,Acu-Link.com,2013-02-06 11:42:00,
2013-02-06 03:57:00,36.9,36.4,30.07,WNW,292,0.0,-999.0,98,-99.99,,,0.00,Acu-Link.com,2013-02-06 11:57:00,
2013-02-06 04:12:00,36.9,36.4,30.06,SSE,157,0.0,-999.0,98,-99.99,,,0.00,Acu-Link.com,2013-02-06 12:12:00,
2013-02-06 04:27:00,36.5,36.0,30.07,SSE,157,0.0,-999.0,98,-99.99,,,0.00,Acu-Link.com,2013-02-06 12:27:00,
2013-02-06 04:42:00,36.9,36.4,30.07,SSE,157,0.0,-999.0,98,-99.99,,,0.00,Acu-Link.com,2013-02-06 12:42:00,
2013-02-06 04:57:00,37.6,37.1,30.07,SSE,157,0.0,-999.0,98,-99.99,,,0.00,Acu-Link.com,2013-02-06 12:57:00,
2013-02-06 05:12:00,38.3,37.8,30.07,SSE,157,0.0,-999.0,98,-99.99,,,0.00,Acu-Link.com,2013-02-06 13:12:00,
2013-02-06 05:28:00,39.0,38.5,30.07,SSE,157,0.0,-999.0,98,-99.99,,,0.00,Acu-Link.com,2013-02-06 13:28:00,
2013-02-06 05:43:00,39.2,38.7,30.08,WSW,247,0.0,-999.0,98,-99.99,,,0.00,Acu-Link.com,2013-02-06 13:43:00,
2013-02-06 05:58:00,39.7,39.2,30.08,SW,225,0.0,-999.0,98,-99.99,,,0.00,Acu-Link.com,2013-02-06 13:58:00,
2013-02-06 06:13:00,39.7,39.2,30.07,SW,225,0.0,-999.0,98,-99.99,,,0.00,Acu-Link.com,2013-02-06 14:13:00,
2013-02-06 06:28:00,39.7,39.2,30.07,SW,225,0.0,-999.0,98,-99.99,,,0.00,Acu-Link.com,2013-02-06 14:28:00,
2013-02-06 06:43:00,39.4,38.9,30.08,SW,225,0.0,-999.0,98,-99.99,,,0.00,Acu-Link.com,2013-02-06 14:43:00,
2013-02-06 06:58:00,39.0,38.5,30.09,SW,225,0.0,-999.0,98,-99.99,,,0.00,Acu-Link.com,2013-02-06 14:58:00,
2013-02-06 07:13:00,38.7,38.2,30.08,SW,225,0.0,-999.0,98,-99.99,,,0.00,Acu-Link.com,2013-02-06 15:13:00,
2013-02-06 07:29:00,37.9,37.4,30.09,SW,225,0.0,-999.0,98,-99.99,,,0.00,Acu-Link.com,2013-02-06 15:29:00,
2013-02-06 07:44:00,37.8,37.3,30.09,SW,225,0.0,-999.0,98,-99.99,,,0.00,Acu-Link.com,2013-02-06 15:44:00,
2013-02-06 07:59:00,39.2,38.7,30.09,SW,225,0.0,-999.0,98,-99.99,,,0.00,Acu-Link.com,2013-02-06 15:59:00,
2013-02-06 08:14:00,41.4,40.9,30.10,SW,225,0.0,-999.0,98,-99.99,,,0.00,Acu-Link.com,2013-02-06 16:14:00,
2013-02-06 08:29:00,43.7,43.2,30.11,West,270,0.0,-999.0,98,-99.99,,,0.00,Acu-Link.com,2013-02-06 16:29:00,
2013-02-06 08:44:00,44.2,43.7,30.11,NNE,22,1.7,-999.0,98,-99.99,,,0.00,Acu-Link.com,2013-02-06 16:44:00,
2013-02-06 09:00:00,43.5,43.0,30.11,NW,315,0.0,-999.0,98,-99.99,,,0.00,Acu-Link.com,2013-02-06 17:00:00,
2013-02-06 09:15:00,43.7,43.2,30.10,NW,315,0.0,-999.0,98,-99.99,,,0.00,Acu-Link.com,2013-02-06 17:15:00,
2013-02-06 09:30:00,44.4,43.9,30.11,WNW,292,0.0,-999.0,98,-99.99,,,0.00,Acu-Link.com,2013-02-06 17:30:00,
2013-02-06 09:45:00,45.1,44.6,30.10,North,0,0.0,-999.0,98,-99.99,,,0.00,Acu-Link.com,2013-02-06 17:45:00,
2013-02-06 10:00:00,46.0,45.5,30.10,WNW,292,2.2,-999.0,98,-99.99,,,0.00,Acu-Link.com,2013-02-06 18:00:00,
2013-02-06 10:15:00,47.1,46.3,30.10,ENE,67,0.0,-999.0,97,-99.99,,,0.00,Acu-Link.com,2013-02-06 18:15:00,
2013-02-06 10:30:00,48.4,47.0,30.10,South,180,0.0,-999.0,95,-99.99,,,0.00,Acu-Link.com,2013-02-06 18:30:00,
2013-02-06 10:45:00,49.6,46.5,30.10,WNW,292,1.7,-999.0,89,-99.99,,,0.00,Acu-Link.com,2013-02-06 18:45:00,
2013-02-06 11:00:00,50.9,46.9,30.09,ESE,112,0.0,-999.0,86,-99.99,,,0.00,Acu-Link.com,2013-02-06 19:00:00,
2013-02-06 11:16:00,52.9,46.6,30.09,SW,225,0.0,-999.0,79,-99.99,,,0.00,Acu-Link.com,2013-02-06 19:16:00,
2013-02-06 11:31:00,54.5,47.4,30.08,West,270,1.1,-999.0,77,-99.99,,,0.00,Acu-Link.com,2013-02-06 19:31:00,
2013-02-06 11:46:00,56.1,47.6,30.08,ESE,112,0.0,-999.0,73,-99.99,,,0.00,Acu-Link.com,2013-02-06 19:46:00,
2013-02-06 12:01:00,55.2,47.1,30.07,SSE,157,0.0,-999.0,74,-99.99,,,0.00,Acu-Link.com,2013-02-06 20:01:00,
2013-02-06 12:16:00,57.2,47.9,30.06,WNW,292,0.0,-999.0,71,-99.99,,,0.00,Acu-Link.com,2013-02-06 20:16:00,
2013-02-06 12:31:00,57.6,47.9,30.06,North,0,1.7,-999.0,70,-99.99,,,0.00,Acu-Link.com,2013-02-06 20:31:00,
2013-02-06 12:46:00,57.2,48.6,30.06,ESE,112,1.7,-999.0,73,-99.99,,,0.00,Acu-Link.com,2013-02-06 20:46:00,
2013-02-06 13:01:00,58.3,48.9,30.05,NW,315,2.7,-999.0,71,-99.99,,,0.00,Acu-Link.com,2013-02-06 21:01:00,
2013-02-06 13:17:00,58.8,49.4,30.04,North,0,2.2,-999.0,71,-99.99,,,0.00,Acu-Link.com,2013-02-06 21:17:00,
2013-02-06 13:32:00,58.8,49.4,30.04,NNE,22,2.7,-999.0,71,-99.99,,,0.00,Acu-Link.com,2013-02-06 21:32:00,
2013-02-06 13:47:00,59.0,48.8,30.03,West,270,0.0,-999.0,69,-99.99,,,0.00,Acu-Link.com,2013-02-06 21:47:00,
2013-02-06 14:02:00,59.7,49.1,30.02,SE,135,0.0,-999.0,68,-99.99,,,0.00,Acu-Link.com,2013-02-06 22:02:00,
2013-02-06 14:17:00,59.0,47.7,30.02,West,270,0.0,-999.0,66,-99.99,,,0.00,Acu-Link.com,2013-02-06 22:17:00,
2013-02-06 14:32:00,60.3,47.7,30.02,NNE,22,2.2,-999.0,63,-99.99,,,0.00,Acu-Link.com,2013-02-06 22:32:00,
2013-02-06 14:47:00,59.4,47.2,30.01,SW,225,1.7,-999.0,64,-99.99,,,0.00,Acu-Link.com,2013-02-06 22:47:00,
2013-02-06 15:02:00,60.4,47.3,30.02,East,90,1.1,-999.0,62,-99.99,,,0.00,Acu-Link.com,2013-02-06 23:02:00,
2013-02-06 15:18:00,61.2,47.2,30.02,SE,135,1.1,-999.0,60,-99.99,,,0.00,Acu-Link.com,2013-02-06 23:18:00,
2013-02-06 15:33:00,60.1,48.7,30.02,WNW,292,1.7,-999.0,66,-99.99,,,0.00,Acu-Link.com,2013-02-06 23:33:00,
2013-02-06 15:48:00,59.0,48.5,30.03,NW,315,1.1,-999.0,68,-99.99,,,0.00,Acu-Link.com,2013-02-06 23:48:00,
2013-02-06 16:03:00,57.0,47.3,30.03,ESE,112,3.2,-999.0,70,-99.99,,,0.00,Acu-Link.com,2013-02-07 00:03:00,
2013-02-06 16:18:00,56.5,47.2,30.03,East,90,1.1,-999.0,71,-99.99,,,0.00,Acu-Link.com,2013-02-07 00:18:00,
2013-02-06 16:33:00,55.8,46.5,30.03,West,270,0.0,-999.0,71,-99.99,,,0.00,Acu-Link.com,2013-02-07 00:33:00,
2013-02-06 16:48:00,54.9,46.8,30.04,NNW,337,1.7,-999.0,74,-99.99,,,0.00,Acu-Link.com,2013-02-07 00:48:00,
2013-02-06 17:03:00,54.0,47.6,30.04,NW,315,1.1,-999.0,79,-99.99,,,0.00,Acu-Link.com,2013-02-07 01:03:00,
2013-02-06 17:18:00,52.7,46.7,30.05,North,0,1.1,-999.0,80,-99.99,,,0.00,Acu-Link.com,2013-02-07 01:18:00,
2013-02-06 17:34:00,51.6,46.0,30.04,West,270,0.0,-999.0,81,-99.99,,,0.00,Acu-Link.com,2013-02-07 01:34:00,
2013-02-06 17:49:00,50.7,46.0,30.04,SE,135,0.0,-999.0,84,-99.99,,,0.00,Acu-Link.com,2013-02-07 01:49:00,
2013-02-06 18:04:00,50.2,47.4,30.04,NE,45,0.0,-999.0,90,-99.99,,,0.00,Acu-Link.com,2013-02-07 02:04:00,
2013-02-06 18:20:00,49.5,47.0,30.05,SE,135,0.0,-999.0,91,-99.99,,,0.00,Acu-Link.com,2013-02-07 02:20:00,
2013-02-06 18:35:00,48.7,46.2,30.04,NE,45,0.0,-999.0,91,-99.99,,,0.00,Acu-Link.com,2013-02-07 02:35:00,
2013-02-06 18:50:00,48.0,46.1,30.05,North,0,1.1,-999.0,93,-99.99,,,0.00,Acu-Link.com,2013-02-07 02:50:00,
2013-02-06 19:05:00,47.5,46.1,30.06,ESE,112,0.0,-999.0,95,-99.99,,,0.00,Acu-Link.com,2013-02-07 03:05:00,
2013-02-06 19:20:00,46.9,46.1,30.05,South,180,1.1,-999.0,97,-99.99,,,0.00,Acu-Link.com,2013-02-07 03:20:00,
2013-02-06 19:35:00,46.4,45.6,30.06,NNE,22,0.0,-999.0,97,-99.99,,,0.00,Acu-Link.com,2013-02-07 03:35:00,
2013-02-06 19:50:00,46.0,45.5,30.06,SSW,202,1.7,-999.0,98,-99.99,,,0.00,Acu-Link.com,2013-02-07 03:50:00,
2013-02-06 20:05:00,45.7,45.2,30.07,NE,45,0.0,-999.0,98,-99.99,,,0.00,Acu-Link.com,2013-02-07 04:05:00,
2013-02-06 20:20:00,45.1,44.6,30.07,SSE,157,0.0,-999.0,98,-99.99,,,0.00,Acu-Link.com,2013-02-07 04:20:00,
2013-02-06 20:35:00,44.4,43.9,30.07,NE,45,0.0,-999.0,98,-99.99,,,0.00,Acu-Link.com,2013-02-07 04:35:00,
2013-02-06 20:51:00,44.1,43.6,30.08,SSW,202,0.0,-999.0,98,-99.99,,,0.00,Acu-Link.com,2013-02-07 04:51:00,
2013-02-06 21:06:00,43.3,42.8,30.08,SSE,157,0.0,-999.0,98,-99.99,,,0.00,Acu-Link.com,2013-02-07 05:06:00,
2013-02-06 21:21:00,43.3,42.8,30.09,SSW,202,0.0,-999.0,98,-99.99,,,0.00,Acu-Link.com,2013-02-07 05:21:00,
2013-02-06 21:36:00,43.0,42.5,30.09,NNE,22,0.0,-999.0,98,-99.99,,,0.00,Acu-Link.com,2013-02-07 05:36:00,
2013-02-06 21:51:00,43.0,42.5,30.09,SSE,157,0.0,-999.0,98,-99.99,,,0.00,Acu-Link.com,2013-02-07 05:51:00,
2013-02-06 22:06:00,43.3,42.8,30.08,South,180,0.0,-999.0,98,-99.99,,,0.00,Acu-Link.com,2013-02-07 06:06:00,
2013-02-06 22:22:00,42.8,42.3,30.09,East,90,0.0,-999.0,98,-99.99,,,0.00,Acu-Link.com,2013-02-07 06:22:00,
2013-02-06 22:37:00,42.1,41.6,30.09,SSW,202,0.0,-999.0,98,-99.99,,,0.00,Acu-Link.com,2013-02-07 06:37:00,
2013-02-06 22:52:00,41.7,41.2,30.09,SSW,202,0.0,-999.0,98,-99.99,,,0.00,Acu-Link.com,2013-02-07 06:52:00,
2013-02-06 23:07:00,41.4,40.9,30.09,ENE,67,0.0,-999.0,98,-99.99,,,0.00,Acu-Link.com,2013-02-07 07:07:00,
2013-02-06 23:22:00,41.0,40.5,30.10,SW,225,0.0,-999.0,98,-99.99,,,0.00,Acu-Link.com,2013-02-07 07:22:00,
2013-02-06 23:37:00,40.8,40.3,30.10,WNW,292,0.0,-999.0,98,-99.99,,,0.00,Acu-Link.com,2013-02-07 07:37:00,
2013-02-06 23:52:00,40.8,40.3,30.11,North,0,0.0,-999.0,98,-99.99,,,0.00,Acu-Link.com,2013-02-07 07:52:00,